sensor_id;sensor_type;location;lat;lon;timestamp;P1;durP1;ratioP1;P2;durP2;ratioP2
65073;SDS011;52218;51.224;-2.328;2023-02-20T00:00:31;5.53;;;0.80;;
65073;SDS011;52218;51.224;-2.328;2023-02-20T00:04:14;6.30;;;0.95;;
65073;SDS011;52218;51.224;-2.328;2023-02-20T00:07:58;5.78;;;0.65;;
65073;SDS011;52218;51.224;-2.328;2023-02-20T00:11:40;2.65;;;0.60;;
65073;SDS011;52218;51.224;-2.328;2023-02-20T00:15:22;2.42;;;0.50;;
65073;SDS011;52218;51.224;-2.328;2023-02-20T00:19:05;2.15;;;0.60;;
65073;SDS011;52218;51.224;-2.328;2023-02-20T00:22:47;3.50;;;0.70;;
65073;SDS011;52218;51.224;-2.328;2023-02-20T00:26:29;1.83;;;0.50;;
65073;SDS011;52218;51.224;-2.328;2023-02-20T00:30:15;1.95;;;0.50;;
65073;SDS011;52218;51.224;-2.328;2023-02-20T00:33:59;3.63;;;0.52;;
65073;SDS011;52218;51.224;-2.328;2023-02-20T00:37:41;1.67;;;0.57;;
65073;SDS011;52218;51.224;-2.328;2023-02-20T00:41:23;3.65;;;0.45;;
65073;SDS011;52218;51.224;-2.328;2023-02-20T00:45:05;2.08;;;0.47;;
65073;SDS011;52218;51.224;-2.328;2023-02-20T00:48:48;2.20;;;0.70;;
65073;SDS011;52218;51.224;-2.328;2023-02-20T00:52:31;1.88;;;0.60;;
65073;SDS011;52218;51.224;-2.328;2023-02-20T00:56:13;0.90;;;0.50;;
65073;SDS011;52218;51.224;-2.328;2023-02-20T00:59:55;1.35;;;0.50;;
65073;SDS011;52218;51.224;-2.328;2023-02-20T01:03:37;1.55;;;0.50;;
65073;SDS011;52218;51.224;-2.328;2023-02-20T01:07:19;1.63;;;0.80;;
65073;SDS011;52218;51.224;-2.328;2023-02-20T01:11:01;1.52;;;0.50;;
65073;SDS011;52218;51.224;-2.328;2023-02-20T01:14:43;0.63;;;0.30;;
65073;SDS011;52218;51.224;-2.328;2023-02-20T01:18:25;1.95;;;0.63;;
65073;SDS011;52218;51.224;-2.328;2023-02-20T01:22:08;3.00;;;0.40;;
65073;SDS011;52218;51.224;-2.328;2023-02-20T01:25:50;1.42;;;0.40;;
65073;SDS011;52218;51.224;-2.328;2023-02-20T01:29:32;1.10;;;0.55;;
65073;SDS011;52218;51.224;-2.328;2023-02-20T01:33:14;0.93;;;0.32;;
65073;SDS011;52218;51.224;-2.328;2023-02-20T01:36:56;1.20;;;0.50;;
65073;SDS011;52218;51.224;-2.328;2023-02-20T01:40:38;4.32;;;0.50;;
65073;SDS011;52218;51.224;-2.328;2023-02-20T01:44:28;2.13;;;0.40;;
65073;SDS011;52218;51.224;-2.328;2023-02-20T01:48:20;2.17;;;0.47;;
65073;SDS011;52218;51.224;-2.328;2023-02-20T01:52:06;1.88;;;0.47;;
65073;SDS011;52218;51.224;-2.328;2023-02-20T01:55:55;1.98;;;0.47;;
65073;SDS011;52218;51.224;-2.328;2023-02-20T01:59:40;1.42;;;0.50;;
65073;SDS011;52218;51.224;-2.328;2023-02-20T02:03:24;2.80;;;0.60;;
65073;SDS011;52218;51.224;-2.328;2023-02-20T02:07:09;2.93;;;0.73;;
65073;SDS011;52218;51.224;-2.328;2023-02-20T02:10:59;1.73;;;0.40;;
65073;SDS011;52218;51.224;-2.328;2023-02-20T02:14:44;1.15;;;0.40;;
65073;SDS011;52218;51.224;-2.328;2023-02-20T02:34:25;1.30;;;0.60;;
65073;SDS011;52218;51.224;-2.328;2023-02-20T02:38:27;2.70;;;0.98;;
65073;SDS011;52218;51.224;-2.328;2023-02-20T02:46:05;2.13;;;0.50;;
65073;SDS011;52218;51.224;-2.328;2023-02-20T02:50:16;2.30;;;0.65;;
65073;SDS011;52218;51.224;-2.328;2023-02-20T02:54:12;2.08;;;0.60;;
65073;SDS011;52218;51.224;-2.328;2023-02-20T02:57:58;2.72;;;0.60;;
65073;SDS011;52218;51.224;-2.328;2023-02-20T03:01:42;1.35;;;0.60;;
65073;SDS011;52218;51.224;-2.328;2023-02-20T03:05:47;0.80;;;0.40;;
65073;SDS011;52218;51.224;-2.328;2023-02-20T03:09:37;0.40;;;0.35;;
65073;SDS011;52218;51.224;-2.328;2023-02-20T03:13:23;1.13;;;0.47;;
65073;SDS011;52218;51.224;-2.328;2023-02-20T03:21:58;0.75;;;0.40;;
65073;SDS011;52218;51.224;-2.328;2023-02-20T03:25:57;0.47;;;0.38;;
65073;SDS011;52218;51.224;-2.328;2023-02-20T03:29:43;0.50;;;0.30;;
65073;SDS011;52218;51.224;-2.328;2023-02-20T03:37:44;0.88;;;0.40;;
65073;SDS011;52218;51.224;-2.328;2023-02-20T03:41:48;0.77;;;0.40;;
65073;SDS011;52218;51.224;-2.328;2023-02-20T03:46:23;0.63;;;0.40;;
65073;SDS011;52218;51.224;-2.328;2023-02-20T03:50:01;0.57;;;0.30;;
65073;SDS011;52218;51.224;-2.328;2023-02-20T03:53:48;1.17;;;0.40;;
65073;SDS011;52218;51.224;-2.328;2023-02-20T03:57:32;0.90;;;0.47;;
65073;SDS011;52218;51.224;-2.328;2023-02-20T04:01:18;0.75;;;0.50;;
65073;SDS011;52218;51.224;-2.328;2023-02-20T04:05:05;1.73;;;0.75;;
65073;SDS011;52218;51.224;-2.328;2023-02-20T04:09:04;2.25;;;0.50;;
65073;SDS011;52218;51.224;-2.328;2023-02-20T04:12:52;1.10;;;0.57;;
65073;SDS011;52218;51.224;-2.328;2023-02-20T04:16:38;1.23;;;0.50;;
65073;SDS011;52218;51.224;-2.328;2023-02-20T04:20:25;2.05;;;0.60;;
65073;SDS011;52218;51.224;-2.328;2023-02-20T04:24:10;1.77;;;0.57;;
65073;SDS011;52218;51.224;-2.328;2023-02-20T04:27:56;1.80;;;0.70;;
65073;SDS011;52218;51.224;-2.328;2023-02-20T04:31:38;2.17;;;0.70;;
65073;SDS011;52218;51.224;-2.328;2023-02-20T04:35:20;1.45;;;0.63;;
65073;SDS011;52218;51.224;-2.328;2023-02-20T04:39:02;2.10;;;0.77;;
65073;SDS011;52218;51.224;-2.328;2023-02-20T04:42:44;3.60;;;0.77;;
65073;SDS011;52218;51.224;-2.328;2023-02-20T04:46:27;1.65;;;0.68;;
65073;SDS011;52218;51.224;-2.328;2023-02-20T04:50:09;5.40;;;0.80;;
65073;SDS011;52218;51.224;-2.328;2023-02-20T04:54:07;2.83;;;0.70;;
65073;SDS011;52218;51.224;-2.328;2023-02-20T04:57:50;1.20;;;0.80;;
65073;SDS011;52218;51.224;-2.328;2023-02-20T05:01:34;1.65;;;0.70;;
65073;SDS011;52218;51.224;-2.328;2023-02-20T05:05:20;3.05;;;1.00;;
65073;SDS011;52218;51.224;-2.328;2023-02-20T05:09:07;1.83;;;0.70;;
65073;SDS011;52218;51.224;-2.328;2023-02-20T05:12:51;3.08;;;1.05;;
65073;SDS011;52218;51.224;-2.328;2023-02-20T05:16:36;1.70;;;0.77;;
65073;SDS011;52218;51.224;-2.328;2023-02-20T05:20:19;3.25;;;0.88;;
65073;SDS011;52218;51.224;-2.328;2023-02-20T05:24:01;1.42;;;0.55;;
65073;SDS011;52218;51.224;-2.328;2023-02-20T05:27:47;1.88;;;0.73;;
65073;SDS011;52218;51.224;-2.328;2023-02-20T05:31:29;2.03;;;0.70;;
65073;SDS011;52218;51.224;-2.328;2023-02-20T05:35:11;2.08;;;0.68;;
65073;SDS011;52218;51.224;-2.328;2023-02-20T05:38:53;3.47;;;0.70;;
65073;SDS011;52218;51.224;-2.328;2023-02-20T05:42:35;1.42;;;0.50;;
65073;SDS011;52218;51.224;-2.328;2023-02-20T05:46:18;0.50;;;0.40;;
65073;SDS011;52218;51.224;-2.328;2023-02-20T05:50:00;2.20;;;0.70;;
65073;SDS011;52218;51.224;-2.328;2023-02-20T05:53:42;1.13;;;0.45;;
65073;SDS011;52218;51.224;-2.328;2023-02-20T05:57:24;1.10;;;0.40;;
65073;SDS011;52218;51.224;-2.328;2023-02-20T06:01:06;2.00;;;0.60;;
65073;SDS011;52218;51.224;-2.328;2023-02-20T06:04:48;2.50;;;0.93;;
65073;SDS011;52218;51.224;-2.328;2023-02-20T06:08:30;1.20;;;0.50;;
65073;SDS011;52218;51.224;-2.328;2023-02-20T06:12:12;0.65;;;0.47;;
65073;SDS011;52218;51.224;-2.328;2023-02-20T06:15:55;1.52;;;0.50;;
65073;SDS011;52218;51.224;-2.328;2023-02-20T06:19:37;2.60;;;0.50;;
65073;SDS011;52218;51.224;-2.328;2023-02-20T06:23:19;1.08;;;0.50;;
65073;SDS011;52218;51.224;-2.328;2023-02-20T06:27:01;1.98;;;0.40;;
65073;SDS011;52218;51.224;-2.328;2023-02-20T06:30:43;2.45;;;0.50;;
65073;SDS011;52218;51.224;-2.328;2023-02-20T06:34:25;0.73;;;0.40;;
65073;SDS011;52218;51.224;-2.328;2023-02-20T06:38:11;1.35;;;0.60;;
65073;SDS011;52218;51.224;-2.328;2023-02-20T06:41:54;0.95;;;0.50;;
65073;SDS011;52218;51.224;-2.328;2023-02-20T06:45:36;1.25;;;0.60;;
65073;SDS011;52218;51.224;-2.328;2023-02-20T06:49:18;1.13;;;0.52;;
65073;SDS011;52218;51.224;-2.328;2023-02-20T06:53:00;0.73;;;0.40;;
65073;SDS011;52218;51.224;-2.328;2023-02-20T06:56:42;1.08;;;0.50;;
65073;SDS011;52218;51.224;-2.328;2023-02-20T07:00:24;0.57;;;0.40;;
65073;SDS011;52218;51.224;-2.328;2023-02-20T07:04:13;1.38;;;0.50;;
65073;SDS011;52218;51.224;-2.328;2023-02-20T07:07:58;1.27;;;0.63;;
65073;SDS011;52218;51.224;-2.328;2023-02-20T07:11:40;1.23;;;0.40;;
65073;SDS011;52218;51.224;-2.328;2023-02-20T07:15:22;1.05;;;0.60;;
65073;SDS011;52218;51.224;-2.328;2023-02-20T07:19:04;2.88;;;0.50;;
65073;SDS011;52218;51.224;-2.328;2023-02-20T07:22:50;0.65;;;0.40;;
65073;SDS011;52218;51.224;-2.328;2023-02-20T07:26:33;1.42;;;0.60;;
65073;SDS011;52218;51.224;-2.328;2023-02-20T07:30:17;2.33;;;0.50;;
65073;SDS011;52218;51.224;-2.328;2023-02-20T07:33:59;0.88;;;0.57;;
65073;SDS011;52218;51.224;-2.328;2023-02-20T07:37:41;1.98;;;0.70;;
65073;SDS011;52218;51.224;-2.328;2023-02-20T07:41:24;1.77;;;0.80;;
65073;SDS011;52218;51.224;-2.328;2023-02-20T07:45:10;1.48;;;0.60;;
65073;SDS011;52218;51.224;-2.328;2023-02-20T07:48:52;0.93;;;0.60;;
65073;SDS011;52218;51.224;-2.328;2023-02-20T07:52:34;1.15;;;0.75;;
65073;SDS011;52218;51.224;-2.328;2023-02-20T07:56:17;1.75;;;0.70;;
65073;SDS011;52218;51.224;-2.328;2023-02-20T08:00:00;1.17;;;0.73;;
65073;SDS011;52218;51.224;-2.328;2023-02-20T08:03:43;1.45;;;0.70;;
65073;SDS011;52218;51.224;-2.328;2023-02-20T08:07:25;2.50;;;0.70;;
65073;SDS011;52218;51.224;-2.328;2023-02-20T08:11:08;1.42;;;0.73;;
65073;SDS011;52218;51.224;-2.328;2023-02-20T08:14:51;1.52;;;0.70;;
65073;SDS011;52218;51.224;-2.328;2023-02-20T08:18:33;1.30;;;0.60;;
65073;SDS011;52218;51.224;-2.328;2023-02-20T08:22:15;2.35;;;0.70;;
65073;SDS011;52218;51.224;-2.328;2023-02-20T08:25:57;2.33;;;0.65;;
65073;SDS011;52218;51.224;-2.328;2023-02-20T08:29:41;1.10;;;0.73;;
65073;SDS011;52218;51.224;-2.328;2023-02-20T08:33:23;1.05;;;0.65;;
65073;SDS011;52218;51.224;-2.328;2023-02-20T08:37:05;1.80;;;0.70;;
65073;SDS011;52218;51.224;-2.328;2023-02-20T08:40:47;1.95;;;0.60;;
65073;SDS011;52218;51.224;-2.328;2023-02-20T08:44:29;0.98;;;0.50;;
65073;SDS011;52218;51.224;-2.328;2023-02-20T08:48:11;1.55;;;0.60;;
65073;SDS011;52218;51.224;-2.328;2023-02-20T08:51:54;1.80;;;0.65;;
65073;SDS011;52218;51.224;-2.328;2023-02-20T08:55:37;1.83;;;0.70;;
65073;SDS011;52218;51.224;-2.328;2023-02-20T08:59:19;3.28;;;0.70;;
65073;SDS011;52218;51.224;-2.328;2023-02-20T09:03:01;4.05;;;0.60;;
65073;SDS011;52218;51.224;-2.328;2023-02-20T09:06:47;1.75;;;0.50;;
65073;SDS011;52218;51.224;-2.328;2023-02-20T09:10:29;1.27;;;0.90;;
65073;SDS011;52218;51.224;-2.328;2023-02-20T09:14:11;2.58;;;0.60;;
65073;SDS011;52218;51.224;-2.328;2023-02-20T09:17:54;2.17;;;0.47;;
65073;SDS011;52218;51.224;-2.328;2023-02-20T09:21:36;1.00;;;0.40;;
65073;SDS011;52218;51.224;-2.328;2023-02-20T09:25:18;1.38;;;0.50;;
65073;SDS011;52218;51.224;-2.328;2023-02-20T09:29:00;1.13;;;0.50;;
65073;SDS011;52218;51.224;-2.328;2023-02-20T09:32:42;0.98;;;0.50;;
65073;SDS011;52218;51.224;-2.328;2023-02-20T09:36:24;1.35;;;0.55;;
65073;SDS011;52218;51.224;-2.328;2023-02-20T09:40:06;1.73;;;0.80;;
65073;SDS011;52218;51.224;-2.328;2023-02-20T09:52:17;0.77;;;0.60;;
65073;SDS011;52218;51.224;-2.328;2023-02-20T09:56:00;0.93;;;0.55;;
65073;SDS011;52218;51.224;-2.328;2023-02-20T09:59:46;2.55;;;0.60;;
65073;SDS011;52218;51.224;-2.328;2023-02-20T10:07:37;2.60;;;0.70;;
65073;SDS011;52218;51.224;-2.328;2023-02-20T10:11:28;1.58;;;0.70;;
65073;SDS011;52218;51.224;-2.328;2023-02-20T10:15:21;1.52;;;0.80;;
65073;SDS011;52218;51.224;-2.328;2023-02-20T10:19:12;1.10;;;0.70;;
65073;SDS011;52218;51.224;-2.328;2023-02-20T10:26:52;1.88;;;0.90;;
65073;SDS011;52218;51.224;-2.328;2023-02-20T10:30:41;1.27;;;0.70;;
65073;SDS011;52218;51.224;-2.328;2023-02-20T10:38:18;2.55;;;1.08;;
65073;SDS011;52218;51.224;-2.328;2023-02-20T10:42:09;1.20;;;0.90;;
65073;SDS011;52218;51.224;-2.328;2023-02-20T10:46:05;1.85;;;1.00;;
65073;SDS011;52218;51.224;-2.328;2023-02-20T10:54:04;3.38;;;0.90;;
65073;SDS011;52218;51.224;-2.328;2023-02-20T10:58:02;1.10;;;0.70;;
65073;SDS011;52218;51.224;-2.328;2023-02-20T11:01:50;1.30;;;1.00;;
65073;SDS011;52218;51.224;-2.328;2023-02-20T11:05:37;1.20;;;0.77;;
65073;SDS011;52218;51.224;-2.328;2023-02-20T11:09:25;2.00;;;0.90;;
65073;SDS011;52218;51.224;-2.328;2023-02-20T11:13:08;2.88;;;0.73;;
65073;SDS011;52218;51.224;-2.328;2023-02-20T11:16:59;1.45;;;0.63;;
65073;SDS011;52218;51.224;-2.328;2023-02-20T11:21:02;1.60;;;0.70;;
65073;SDS011;52218;51.224;-2.328;2023-02-20T11:24:45;2.13;;;0.50;;
65073;SDS011;52218;51.224;-2.328;2023-02-20T11:28:27;1.05;;;0.52;;
65073;SDS011;52218;51.224;-2.328;2023-02-20T11:32:26;1.20;;;0.60;;
65073;SDS011;52218;51.224;-2.328;2023-02-20T11:36:23;3.03;;;0.57;;
65073;SDS011;52218;51.224;-2.328;2023-02-20T11:40:20;0.77;;;0.50;;
65073;SDS011;52218;51.224;-2.328;2023-02-20T11:48:28;1.02;;;0.60;;
65073;SDS011;52218;51.224;-2.328;2023-02-20T11:52:14;1.15;;;0.50;;
65073;SDS011;52218;51.224;-2.328;2023-02-20T11:56:08;1.10;;;0.52;;
65073;SDS011;52218;51.224;-2.328;2023-02-20T12:00:13;0.80;;;0.50;;
65073;SDS011;52218;51.224;-2.328;2023-02-20T12:04:00;2.25;;;0.50;;
65073;SDS011;52218;51.224;-2.328;2023-02-20T12:11:33;2.78;;;0.65;;
65073;SDS011;52218;51.224;-2.328;2023-02-20T12:15:16;0.95;;;0.45;;
65073;SDS011;52218;51.224;-2.328;2023-02-20T12:23:08;2.05;;;0.50;;
65073;SDS011;52218;51.224;-2.328;2023-02-20T12:27:02;0.60;;;0.40;;
65073;SDS011;52218;51.224;-2.328;2023-02-20T12:31:28;1.42;;;0.60;;
65073;SDS011;52218;51.224;-2.328;2023-02-20T12:50:39;2.00;;;0.70;;
65073;SDS011;52218;51.224;-2.328;2023-02-20T13:02:42;1.00;;;0.40;;
65073;SDS011;52218;51.224;-2.328;2023-02-20T13:06:46;0.90;;;0.30;;
65073;SDS011;52218;51.224;-2.328;2023-02-20T13:10:38;0.25;;;0.20;;
65073;SDS011;52218;51.224;-2.328;2023-02-20T13:14:41;1.08;;;0.30;;
65073;SDS011;52218;51.224;-2.328;2023-02-20T13:22:18;0.75;;;0.40;;
65073;SDS011;52218;51.224;-2.328;2023-02-20T13:26:00;2.22;;;0.30;;
65073;SDS011;52218;51.224;-2.328;2023-02-20T13:29:56;0.30;;;0.20;;
65073;SDS011;52218;51.224;-2.328;2023-02-20T13:37:49;0.32;;;0.20;;
65073;SDS011;52218;51.224;-2.328;2023-02-20T13:46:09;0.50;;;0.30;;
65073;SDS011;52218;51.224;-2.328;2023-02-20T13:53:34;0.55;;;0.30;;
65073;SDS011;52218;51.224;-2.328;2023-02-20T13:57:17;2.25;;;0.50;;
65073;SDS011;52218;51.224;-2.328;2023-02-20T14:00:59;0.63;;;0.20;;
65073;SDS011;52218;51.224;-2.328;2023-02-20T14:04:52;1.08;;;0.30;;
65073;SDS011;52218;51.224;-2.328;2023-02-20T14:08:36;0.75;;;0.30;;
65073;SDS011;52218;51.224;-2.328;2023-02-20T14:16:04;1.05;;;0.40;;
65073;SDS011;52218;51.224;-2.328;2023-02-20T14:20:17;0.93;;;0.30;;
65073;SDS011;52218;51.224;-2.328;2023-02-20T14:24:26;1.30;;;0.30;;
65073;SDS011;52218;51.224;-2.328;2023-02-20T14:28:14;0.77;;;0.40;;
65073;SDS011;52218;51.224;-2.328;2023-02-20T14:31:57;1.15;;;0.22;;
65073;SDS011;52218;51.224;-2.328;2023-02-20T14:39:47;2.33;;;0.25;;
65073;SDS011;52218;51.224;-2.328;2023-02-20T14:43:30;0.82;;;0.38;;
65073;SDS011;52218;51.224;-2.328;2023-02-20T14:47:12;0.43;;;0.20;;
65073;SDS011;52218;51.224;-2.328;2023-02-20T14:51:14;1.85;;;0.40;;
65073;SDS011;52218;51.224;-2.328;2023-02-20T14:54:59;0.30;;;0.25;;
65073;SDS011;52218;51.224;-2.328;2023-02-20T14:58:43;0.60;;;0.30;;
65073;SDS011;52218;51.224;-2.328;2023-02-20T15:02:26;0.57;;;0.30;;
65073;SDS011;52218;51.224;-2.328;2023-02-20T15:06:14;0.57;;;0.25;;
65073;SDS011;52218;51.224;-2.328;2023-02-20T15:09:57;0.70;;;0.30;;
65073;SDS011;52218;51.224;-2.328;2023-02-20T15:13:43;1.87;;;0.30;;
65073;SDS011;52218;51.224;-2.328;2023-02-20T15:17:27;0.95;;;0.43;;
65073;SDS011;52218;51.224;-2.328;2023-02-20T15:21:11;0.30;;;0.20;;
65073;SDS011;52218;51.224;-2.328;2023-02-20T15:32:54;0.30;;;0.20;;
65073;SDS011;52218;51.224;-2.328;2023-02-20T15:36:37;0.28;;;0.17;;
65073;SDS011;52218;51.224;-2.328;2023-02-20T15:40:21;0.95;;;0.30;;
65073;SDS011;52218;51.224;-2.328;2023-02-20T15:44:09;0.57;;;0.20;;
65073;SDS011;52218;51.224;-2.328;2023-02-20T15:47:51;1.30;;;0.30;;
65073;SDS011;52218;51.224;-2.328;2023-02-20T15:51:36;0.50;;;0.20;;
65073;SDS011;52218;51.224;-2.328;2023-02-20T15:59:05;0.30;;;0.20;;
65073;SDS011;52218;51.224;-2.328;2023-02-20T16:02:49;1.48;;;0.40;;
65073;SDS011;52218;51.224;-2.328;2023-02-20T16:06:32;1.55;;;0.20;;
65073;SDS011;52218;51.224;-2.328;2023-02-20T16:10:15;0.77;;;0.20;;
65073;SDS011;52218;51.224;-2.328;2023-02-20T16:13:58;1.00;;;0.60;;
65073;SDS011;52218;51.224;-2.328;2023-02-20T16:17:43;0.68;;;0.30;;
65073;SDS011;52218;51.224;-2.328;2023-02-20T16:21:25;1.42;;;0.50;;
65073;SDS011;52218;51.224;-2.328;2023-02-20T16:25:09;1.23;;;0.50;;
65073;SDS011;52218;51.224;-2.328;2023-02-20T16:28:59;1.25;;;0.45;;
65073;SDS011;52218;51.224;-2.328;2023-02-20T16:32:43;0.70;;;0.22;;
65073;SDS011;52218;51.224;-2.328;2023-02-20T16:36:25;3.28;;;1.15;;
65073;SDS011;52218;51.224;-2.328;2023-02-20T16:40:08;1.10;;;0.50;;
65073;SDS011;52218;51.224;-2.328;2023-02-20T16:43:50;1.92;;;0.77;;
65073;SDS011;52218;51.224;-2.328;2023-02-20T16:47:32;1.98;;;0.50;;
65073;SDS011;52218;51.224;-2.328;2023-02-20T16:51:14;4.53;;;0.73;;
65073;SDS011;52218;51.224;-2.328;2023-02-20T16:55:26;0.98;;;0.35;;
65073;SDS011;52218;51.224;-2.328;2023-02-20T16:59:14;1.30;;;0.77;;
65073;SDS011;52218;51.224;-2.328;2023-02-20T17:02:56;3.35;;;1.98;;
65073;SDS011;52218;51.224;-2.328;2023-02-20T17:06:39;1.95;;;0.93;;
65073;SDS011;52218;51.224;-2.328;2023-02-20T17:10:21;2.05;;;0.88;;
65073;SDS011;52218;51.224;-2.328;2023-02-20T17:14:03;4.57;;;0.90;;
65073;SDS011;52218;51.224;-2.328;2023-02-20T17:17:45;2.90;;;1.00;;
65073;SDS011;52218;51.224;-2.328;2023-02-20T17:21:28;1.33;;;0.60;;
65073;SDS011;52218;51.224;-2.328;2023-02-20T17:25:14;2.47;;;0.90;;
65073;SDS011;52218;51.224;-2.328;2023-02-20T17:28:57;2.00;;;0.98;;
65073;SDS011;52218;51.224;-2.328;2023-02-20T17:32:39;1.20;;;0.70;;
65073;SDS011;52218;51.224;-2.328;2023-02-20T17:36:21;1.15;;;0.63;;
65073;SDS011;52218;51.224;-2.328;2023-02-20T17:40:03;2.45;;;0.70;;
65073;SDS011;52218;51.224;-2.328;2023-02-20T17:43:46;1.38;;;0.60;;
65073;SDS011;52218;51.224;-2.328;2023-02-20T17:47:28;1.75;;;0.52;;
65073;SDS011;52218;51.224;-2.328;2023-02-20T17:51:14;1.38;;;0.68;;
65073;SDS011;52218;51.224;-2.328;2023-02-20T17:54:58;2.67;;;0.47;;
65073;SDS011;52218;51.224;-2.328;2023-02-20T17:58:40;4.30;;;2.13;;
65073;SDS011;52218;51.224;-2.328;2023-02-20T18:02:23;3.45;;;0.85;;
65073;SDS011;52218;51.224;-2.328;2023-02-20T18:06:05;1.85;;;1.05;;
65073;SDS011;52218;51.224;-2.328;2023-02-20T18:09:47;2.45;;;1.05;;
65073;SDS011;52218;51.224;-2.328;2023-02-20T18:13:29;3.20;;;1.38;;
65073;SDS011;52218;51.224;-2.328;2023-02-20T18:17:12;3.83;;;1.13;;
65073;SDS011;52218;51.224;-2.328;2023-02-20T18:20:54;2.40;;;0.75;;
65073;SDS011;52218;51.224;-2.328;2023-02-20T18:24:36;4.30;;;0.95;;
65073;SDS011;52218;51.224;-2.328;2023-02-20T18:28:18;3.65;;;1.45;;
65073;SDS011;52218;51.224;-2.328;2023-02-20T18:32:00;3.33;;;1.27;;
65073;SDS011;52218;51.224;-2.328;2023-02-20T18:35:43;2.63;;;1.05;;
65073;SDS011;52218;51.224;-2.328;2023-02-20T18:39:30;2.58;;;1.08;;
65073;SDS011;52218;51.224;-2.328;2023-02-20T18:43:13;2.42;;;0.77;;
65073;SDS011;52218;51.224;-2.328;2023-02-20T18:46:55;1.75;;;0.85;;
65073;SDS011;52218;51.224;-2.328;2023-02-20T18:50:39;2.85;;;1.08;;
65073;SDS011;52218;51.224;-2.328;2023-02-20T18:54:22;2.88;;;1.58;;
65073;SDS011;52218;51.224;-2.328;2023-02-20T18:58:07;3.58;;;1.80;;
65073;SDS011;52218;51.224;-2.328;2023-02-20T19:01:49;3.35;;;1.70;;
65073;SDS011;52218;51.224;-2.328;2023-02-20T19:05:31;2.80;;;1.00;;
65073;SDS011;52218;51.224;-2.328;2023-02-20T19:09:18;4.30;;;1.00;;
65073;SDS011;52218;51.224;-2.328;2023-02-20T19:13:04;2.63;;;1.30;;
65073;SDS011;52218;51.224;-2.328;2023-02-20T19:16:47;3.35;;;2.35;;
65073;SDS011;52218;51.224;-2.328;2023-02-20T19:20:36;3.08;;;1.38;;
65073;SDS011;52218;51.224;-2.328;2023-02-20T19:24:19;2.55;;;0.98;;
65073;SDS011;52218;51.224;-2.328;2023-02-20T19:28:02;4.75;;;1.15;;
65073;SDS011;52218;51.224;-2.328;2023-02-20T19:31:44;2.15;;;1.20;;
65073;SDS011;52218;51.224;-2.328;2023-02-20T19:35:26;2.15;;;1.00;;
65073;SDS011;52218;51.224;-2.328;2023-02-20T19:39:09;2.33;;;1.17;;
65073;SDS011;52218;51.224;-2.328;2023-02-20T19:42:51;2.58;;;1.30;;
65073;SDS011;52218;51.224;-2.328;2023-02-20T19:46:33;2.55;;;1.20;;
65073;SDS011;52218;51.224;-2.328;2023-02-20T19:50:16;1.88;;;0.85;;
65073;SDS011;52218;51.224;-2.328;2023-02-20T19:53:58;2.35;;;1.00;;
65073;SDS011;52218;51.224;-2.328;2023-02-20T19:57:41;2.10;;;1.20;;
65073;SDS011;52218;51.224;-2.328;2023-02-20T20:01:23;2.15;;;1.38;;
65073;SDS011;52218;51.224;-2.328;2023-02-20T20:05:06;3.97;;;1.70;;
65073;SDS011;52218;51.224;-2.328;2023-02-20T20:08:48;1.90;;;1.10;;
65073;SDS011;52218;51.224;-2.328;2023-02-20T20:12:50;3.53;;;1.17;;
65073;SDS011;52218;51.224;-2.328;2023-02-20T20:16:33;2.47;;;1.00;;
65073;SDS011;52218;51.224;-2.328;2023-02-20T20:20:18;1.75;;;1.17;;
65073;SDS011;52218;51.224;-2.328;2023-02-20T20:24:02;2.47;;;1.30;;
65073;SDS011;52218;51.224;-2.328;2023-02-20T20:27:48;4.82;;;1.70;;
65073;SDS011;52218;51.224;-2.328;2023-02-20T20:31:32;1.67;;;1.00;;
65073;SDS011;52218;51.224;-2.328;2023-02-20T20:35:17;1.65;;;0.82;;
65073;SDS011;52218;51.224;-2.328;2023-02-20T20:39:00;5.13;;;1.10;;
65073;SDS011;52218;51.224;-2.328;2023-02-20T20:42:42;1.52;;;0.73;;
65073;SDS011;52218;51.224;-2.328;2023-02-20T20:46:25;2.28;;;1.20;;
65073;SDS011;52218;51.224;-2.328;2023-02-20T20:50:07;3.35;;;1.20;;
65073;SDS011;52218;51.224;-2.328;2023-02-20T20:54:11;3.22;;;1.23;;
65073;SDS011;52218;51.224;-2.328;2023-02-20T20:57:54;1.95;;;1.10;;
65073;SDS011;52218;51.224;-2.328;2023-02-20T21:01:36;1.50;;;0.90;;
65073;SDS011;52218;51.224;-2.328;2023-02-20T21:05:19;2.72;;;1.10;;
65073;SDS011;52218;51.224;-2.328;2023-02-20T21:09:03;2.00;;;1.00;;
65073;SDS011;52218;51.224;-2.328;2023-02-20T21:12:45;2.10;;;0.82;;
65073;SDS011;52218;51.224;-2.328;2023-02-20T21:16:27;5.18;;;1.60;;
65073;SDS011;52218;51.224;-2.328;2023-02-20T21:20:14;2.45;;;1.08;;
65073;SDS011;52218;51.224;-2.328;2023-02-20T21:23:59;3.40;;;1.35;;
65073;SDS011;52218;51.224;-2.328;2023-02-20T21:27:41;1.92;;;1.08;;
65073;SDS011;52218;51.224;-2.328;2023-02-20T21:31:23;3.00;;;1.00;;
65073;SDS011;52218;51.224;-2.328;2023-02-20T21:35:05;1.38;;;0.73;;
65073;SDS011;52218;51.224;-2.328;2023-02-20T21:38:48;2.10;;;1.40;;
65073;SDS011;52218;51.224;-2.328;2023-02-20T21:42:30;1.58;;;0.90;;
65073;SDS011;52218;51.224;-2.328;2023-02-20T21:46:30;1.20;;;0.98;;
65073;SDS011;52218;51.224;-2.328;2023-02-20T21:50:13;1.10;;;0.70;;
65073;SDS011;52218;51.224;-2.328;2023-02-20T21:53:56;1.23;;;0.90;;
65073;SDS011;52218;51.224;-2.328;2023-02-20T21:57:38;1.58;;;0.93;;
65073;SDS011;52218;51.224;-2.328;2023-02-20T22:01:20;2.97;;;1.08;;
65073;SDS011;52218;51.224;-2.328;2023-02-20T22:05:02;1.42;;;1.00;;
65073;SDS011;52218;51.224;-2.328;2023-02-20T22:08:45;1.00;;;0.70;;
65073;SDS011;52218;51.224;-2.328;2023-02-20T22:12:46;1.50;;;0.85;;
65073;SDS011;52218;51.224;-2.328;2023-02-20T22:16:47;1.15;;;0.77;;
65073;SDS011;52218;51.224;-2.328;2023-02-20T22:20:47;2.45;;;0.65;;
65073;SDS011;52218;51.224;-2.328;2023-02-20T22:24:48;1.67;;;0.90;;
65073;SDS011;52218;51.224;-2.328;2023-02-20T22:28:48;1.25;;;0.93;;
65073;SDS011;52218;51.224;-2.328;2023-02-20T22:32:51;1.00;;;0.70;;
65073;SDS011;52218;51.224;-2.328;2023-02-20T22:36:52;1.45;;;0.73;;
65073;SDS011;52218;51.224;-2.328;2023-02-20T22:40:52;1.40;;;0.70;;
65073;SDS011;52218;51.224;-2.328;2023-02-20T22:44:54;1.15;;;0.75;;
65073;SDS011;52218;51.224;-2.328;2023-02-20T22:48:54;1.20;;;0.80;;
65073;SDS011;52218;51.224;-2.328;2023-02-20T22:52:55;1.75;;;0.77;;
65073;SDS011;52218;51.224;-2.328;2023-02-20T22:56:56;1.20;;;0.70;;
65073;SDS011;52218;51.224;-2.328;2023-02-20T23:00:56;1.92;;;0.82;;
65073;SDS011;52218;51.224;-2.328;2023-02-20T23:04:57;0.80;;;0.57;;
65073;SDS011;52218;51.224;-2.328;2023-02-20T23:08:58;1.40;;;0.70;;
65073;SDS011;52218;51.224;-2.328;2023-02-20T23:12:58;1.35;;;0.90;;
65073;SDS011;52218;51.224;-2.328;2023-02-20T23:16:59;1.65;;;0.90;;
65073;SDS011;52218;51.224;-2.328;2023-02-20T23:21:15;1.13;;;0.80;;
65073;SDS011;52218;51.224;-2.328;2023-02-20T23:25:16;1.50;;;0.80;;
65073;SDS011;52218;51.224;-2.328;2023-02-20T23:29:17;1.20;;;0.80;;
65073;SDS011;52218;51.224;-2.328;2023-02-20T23:33:17;1.27;;;0.77;;
65073;SDS011;52218;51.224;-2.328;2023-02-20T23:37:18;0.93;;;0.70;;
65073;SDS011;52218;51.224;-2.328;2023-02-20T23:41:19;1.45;;;0.90;;
65073;SDS011;52218;51.224;-2.328;2023-02-20T23:45:19;1.65;;;0.90;;
65073;SDS011;52218;51.224;-2.328;2023-02-20T23:49:20;1.67;;;0.95;;
65073;SDS011;52218;51.224;-2.328;2023-02-20T23:53:21;1.65;;;1.10;;
65073;SDS011;52218;51.224;-2.328;2023-02-20T23:57:21;1.60;;;1.20;;
